createdAt,value
2019-03-02T00:00:45.828Z,930.90
2019-03-02T00:01:48.467Z,930.93
2019-03-02T00:02:45.735Z,930.97
2019-03-02T00:03:45.697Z,930.99
2019-03-02T00:04:47.313Z,931.01
2019-03-02T00:05:45.592Z,931.05
2019-03-02T00:06:45.538Z,931.09
2019-03-02T00:07:47.715Z,931.08
2019-03-02T00:08:45.467Z,931.10
2019-03-02T00:09:45.424Z,931.04
2019-03-02T00:10:45.831Z,931.07
2019-03-02T00:11:45.319Z,931.05
2019-03-02T00:12:45.275Z,931.00
2019-03-02T00:13:45.214Z,931.01
2019-03-02T00:14:45.176Z,931.03
2019-03-02T00:15:45.143Z,930.96
2019-03-02T00:16:45.101Z,930.99
2019-03-02T00:17:45.050Z,931.03
2019-03-02T00:18:44.994Z,930.98
2019-03-02T00:19:44.961Z,931.00
2019-03-02T00:20:44.890Z,930.96
2019-03-02T00:21:44.862Z,931.00
2019-03-02T00:22:45.019Z,931.06
2019-03-02T00:23:44.766Z,931.05
2019-03-02T00:24:44.730Z,931.13
2019-03-02T00:25:44.668Z,931.18
2019-03-02T00:26:45.966Z,931.23
2019-03-02T00:27:44.577Z,931.26
2019-03-02T00:28:44.533Z,931.29
2019-03-02T00:29:45.963Z,931.28
2019-03-02T00:30:44.453Z,931.28
2019-03-02T00:31:44.394Z,931.26
2019-03-02T00:32:45.168Z,931.26
2019-03-02T00:33:44.302Z,931.25
2019-03-02T00:34:44.258Z,931.29
2019-03-02T00:35:44.824Z,931.29
2019-03-02T00:36:44.175Z,931.35
2019-03-02T00:37:44.114Z,931.35
2019-03-02T00:38:44.327Z,931.38
2019-03-02T00:39:44.034Z,931.43
2019-03-02T00:40:43.980Z,931.47
2019-03-02T00:41:43.928Z,931.44
2019-03-02T00:42:43.874Z,931.41
2019-03-02T00:43:43.837Z,931.40
2019-03-02T00:44:43.794Z,931.44
2019-03-02T00:45:45.985Z,931.43
2019-03-02T00:46:43.714Z,931.41
2019-03-02T00:47:43.656Z,931.43
2019-03-02T00:48:46.869Z,931.44
2019-03-02T00:49:43.563Z,931.42
2019-03-02T00:50:43.518Z,931.44
2019-03-02T00:51:46.334Z,931.40
2019-03-02T00:52:43.437Z,931.38
2019-03-02T00:53:43.369Z,931.36
2019-03-02T00:54:46.167Z,931.35
2019-03-02T00:55:43.284Z,931.33
2019-03-02T00:56:43.715Z,931.37
2019-03-02T00:57:43.194Z,931.38
2019-03-02T00:58:43.153Z,931.41
2019-03-02T00:59:43.102Z,931.39
2019-03-02T01:00:43.053Z,931.39
2019-03-02T01:01:42.998Z,931.42
2019-03-02T01:02:42.965Z,931.44
2019-03-02T01:03:42.918Z,931.41
2019-03-02T01:04:42.860Z,931.45
2019-03-02T01:05:42.845Z,931.49
2019-03-02T01:06:44.961Z,931.53
2019-03-02T01:07:42.743Z,931.55
2019-03-02T01:08:42.697Z,931.57
2019-03-02T01:09:43.655Z,931.57
2019-03-02T01:10:42.602Z,931.53
2019-03-02T01:11:42.551Z,931.49
2019-03-02T01:12:43.978Z,931.54
2019-03-02T01:13:42.460Z,931.54
2019-03-02T01:14:42.399Z,931.56
2019-03-02T01:15:44.048Z,931.51
2019-03-02T01:16:42.325Z,931.51
2019-03-02T01:17:42.270Z,931.58
2019-03-02T01:18:42.507Z,931.54
2019-03-02T01:19:42.170Z,931.58
2019-03-02T01:20:42.134Z,931.59
2019-03-02T01:21:42.591Z,931.64
2019-03-02T01:22:42.057Z,931.66
2019-03-02T01:23:41.998Z,931.64
2019-03-02T01:24:41.938Z,931.60
2019-03-02T01:25:41.917Z,931.63
2019-03-02T01:26:41.847Z,931.57
2019-03-02T01:27:41.825Z,931.62
2019-03-02T01:28:44.505Z,931.62
2019-03-02T01:29:41.719Z,931.61
2019-03-02T01:30:41.685Z,931.67
2019-03-02T01:31:41.816Z,931.65
2019-03-02T01:32:41.582Z,931.70
2019-03-02T01:33:41.537Z,931.72
2019-03-02T01:34:42.350Z,931.76
2019-03-02T01:35:41.443Z,931.77
2019-03-02T01:36:41.402Z,931.72
2019-03-02T01:37:43.997Z,931.80
2019-03-02T01:38:41.306Z,931.76
2019-03-02T01:39:41.255Z,931.77
2019-03-02T01:40:41.658Z,931.78
2019-03-02T01:41:41.167Z,931.78
2019-03-02T01:42:41.111Z,931.78
2019-03-02T01:43:41.449Z,931.81
2019-03-02T01:44:41.016Z,931.78
2019-03-02T01:45:40.991Z,931.81
2019-03-02T01:46:41.600Z,931.85
2019-03-02T01:47:40.889Z,931.80
2019-03-02T01:48:40.834Z,931.84
2019-03-02T01:49:40.797Z,931.86
2019-03-02T01:50:43.779Z,931.81
2019-03-02T01:51:40.714Z,931.80
2019-03-02T01:52:40.660Z,931.80
2019-03-02T01:53:41.828Z,931.75
2019-03-02T01:54:40.555Z,931.73
2019-03-02T01:55:40.521Z,931.65
2019-03-02T01:56:41.425Z,931.60
2019-03-02T01:57:40.429Z,931.55
2019-03-02T01:58:40.371Z,931.56
2019-03-02T01:59:40.332Z,931.58
2019-03-02T02:00:40.291Z,931.58
2019-03-02T02:01:40.244Z,931.57
2019-03-02T02:02:40.197Z,931.63
2019-03-02T02:03:40.170Z,931.61
2019-03-02T02:04:40.104Z,931.60
2019-03-02T02:05:40.065Z,931.61
2019-03-02T02:06:42.720Z,931.62
2019-03-02T02:07:39.975Z,931.62
2019-03-02T02:08:39.916Z,931.63
2019-03-02T02:09:40.590Z,931.65
2019-03-02T02:10:43.043Z,931.64
2019-03-02T02:11:39.780Z,931.64
2019-03-02T02:12:39.731Z,931.60
2019-03-02T02:13:42.904Z,931.62
2019-03-02T02:14:39.643Z,931.60
2019-03-02T02:15:39.609Z,931.60
2019-03-02T02:16:41.879Z,931.59
2019-03-02T02:17:39.491Z,931.60
2019-03-02T02:18:39.469Z,931.57
2019-03-02T02:19:39.659Z,931.58
2019-03-02T02:20:39.377Z,931.55
2019-03-02T02:21:39.305Z,931.51
2019-03-02T02:22:39.272Z,931.49
2019-03-02T02:23:39.236Z,931.49
2019-03-02T02:24:39.188Z,931.49
2019-03-02T02:25:39.133Z,931.48
2019-03-02T02:26:39.086Z,931.43
2019-03-02T02:27:39.039Z,931.40
2019-03-02T02:28:38.993Z,931.37
2019-03-02T02:29:40.689Z,931.29
2019-03-02T02:30:38.906Z,931.30
2019-03-02T02:31:44.570Z,931.31
2019-03-02T02:32:38.797Z,931.33
2019-03-02T02:33:43.184Z,931.30
2019-03-02T02:34:38.704Z,931.35
2019-03-02T02:35:40.242Z,931.37
2019-03-02T02:36:38.635Z,931.36
2019-03-02T02:37:38.580Z,931.32
2019-03-02T02:38:38.588Z,931.39
2019-03-02T02:39:38.481Z,931.38
2019-03-02T02:40:38.452Z,931.40
2019-03-02T02:41:38.383Z,931.39
2019-03-02T02:42:39.054Z,931.35
2019-03-02T02:43:38.288Z,931.37
2019-03-02T02:44:39.239Z,931.34
2019-03-02T02:45:38.217Z,931.35
2019-03-02T02:46:38.149Z,931.35
2019-03-02T02:47:38.127Z,931.33
2019-03-02T02:48:38.081Z,931.31
2019-03-02T02:49:38.010Z,931.27
2019-03-02T02:50:37.974Z,931.22
2019-03-02T02:51:37.960Z,931.24
2019-03-02T02:52:37.892Z,931.22
2019-03-02T02:53:40.185Z,931.20
2019-03-02T02:54:37.806Z,931.18
2019-03-02T02:55:40.815Z,931.20
2019-03-02T02:56:37.712Z,931.18
2019-03-02T02:57:38.280Z,931.16
2019-03-02T02:58:37.605Z,931.17
2019-03-02T02:59:38.527Z,931.13
2019-03-02T03:00:37.501Z,931.10
2019-03-02T03:01:37.478Z,931.10
2019-03-02T03:02:37.421Z,931.08
2019-03-02T03:03:37.361Z,931.02
2019-03-02T03:04:38.183Z,930.98
2019-03-02T03:05:37.268Z,930.98
2019-03-02T03:06:37.246Z,930.97
2019-03-02T03:07:37.199Z,930.99
2019-03-02T03:08:37.130Z,930.96
2019-03-02T03:09:37.091Z,930.97
2019-03-02T03:10:37.036Z,930.98
2019-03-02T03:11:43.727Z,930.97
2019-03-02T03:12:36.960Z,930.90
2019-03-02T03:13:40.713Z,930.88
2019-03-02T03:14:36.865Z,930.86
2019-03-02T03:15:38.730Z,930.84
2019-03-02T03:16:36.763Z,930.84
2019-03-02T03:17:36.734Z,930.85
2019-03-02T03:18:36.676Z,930.77
2019-03-02T03:19:36.642Z,930.74
2019-03-02T03:20:36.586Z,930.76
2019-03-02T03:21:36.556Z,930.75
2019-03-02T03:22:40.876Z,930.81
2019-03-02T03:23:36.449Z,930.82
2019-03-02T03:24:40.385Z,930.80
2019-03-02T03:25:36.373Z,930.79
2019-03-02T03:26:36.572Z,930.83
2019-03-02T03:27:36.261Z,930.78
2019-03-02T03:28:36.216Z,930.80
2019-03-02T03:29:36.158Z,930.77
2019-03-02T03:30:39.420Z,930.82
2019-03-02T03:31:36.074Z,930.84
2019-03-02T03:32:36.035Z,930.82
2019-03-02T03:33:43.276Z,930.81
2019-03-02T03:34:35.940Z,930.78
2019-03-02T03:35:35.943Z,930.79
2019-03-02T03:36:35.847Z,930.78
2019-03-02T03:37:35.795Z,930.75
2019-03-02T03:38:35.753Z,930.76
2019-03-02T03:39:35.706Z,930.74
2019-03-02T03:40:35.660Z,930.72
2019-03-02T03:41:42.780Z,930.71
2019-03-02T03:42:35.581Z,930.70
2019-03-02T03:43:41.542Z,930.68
2019-03-02T03:44:35.475Z,930.68
2019-03-02T03:45:42.496Z,930.65
2019-03-02T03:46:35.386Z,930.67
2019-03-02T03:47:38.752Z,930.61
2019-03-02T03:48:35.310Z,930.60
2019-03-02T03:49:35.490Z,930.60
2019-03-02T03:50:35.197Z,930.57
2019-03-02T03:51:35.148Z,930.57
2019-03-02T03:52:35.101Z,930.56
2019-03-02T03:53:35.047Z,930.57
2019-03-02T03:54:35.014Z,930.55
2019-03-02T03:55:34.985Z,930.57
2019-03-02T03:56:37.673Z,930.54
2019-03-02T03:57:34.874Z,930.57
2019-03-02T03:58:39.299Z,930.55
2019-03-02T03:59:34.803Z,930.53
2019-03-02T04:00:38.710Z,930.53
2019-03-02T04:01:34.690Z,930.54
2019-03-02T04:02:35.355Z,930.50
2019-03-02T04:03:34.600Z,930.49
2019-03-02T04:04:34.549Z,930.46
2019-03-02T04:05:34.504Z,930.48
2019-03-02T04:06:34.457Z,930.43
2019-03-02T04:07:34.407Z,930.45
2019-03-02T04:08:34.377Z,930.42
2019-03-02T04:09:34.330Z,930.41
2019-03-02T04:10:34.269Z,930.41
2019-03-02T04:11:37.825Z,930.49
2019-03-02T04:12:34.213Z,930.47
2019-03-02T04:13:34.134Z,930.48
2019-03-02T04:14:34.088Z,930.41
2019-03-02T04:15:40.702Z,930.41
2019-03-02T04:16:34.004Z,930.38
2019-03-02T04:17:38.685Z,930.34
2019-03-02T04:18:33.903Z,930.32
2019-03-02T04:19:35.617Z,930.36
2019-03-02T04:20:33.803Z,930.26
2019-03-02T04:21:33.772Z,930.26
2019-03-02T04:22:33.718Z,930.21
2019-03-02T04:23:33.658Z,930.20
2019-03-02T04:24:35.134Z,930.16
2019-03-02T04:25:33.579Z,930.16
2019-03-02T04:26:36.525Z,930.13
2019-03-02T04:27:33.486Z,930.11
2019-03-02T04:28:33.440Z,930.14
2019-03-02T04:29:33.390Z,930.15
2019-03-02T04:30:33.337Z,930.16
2019-03-02T04:31:33.301Z,930.16
2019-03-02T04:32:33.268Z,930.22
2019-03-02T04:33:33.197Z,930.18
2019-03-02T04:34:33.161Z,930.18
2019-03-02T04:35:33.679Z,930.24
2019-03-02T04:36:36.883Z,930.23
2019-03-02T04:37:33.010Z,930.21
2019-03-02T04:38:33.629Z,930.23
2019-03-02T04:39:32.928Z,930.25
2019-03-02T04:40:32.883Z,930.23
2019-03-02T04:41:35.688Z,930.21
2019-03-02T04:42:33.001Z,930.15
2019-03-02T04:43:32.743Z,930.18
2019-03-02T04:44:32.685Z,930.16
2019-03-02T04:45:32.639Z,930.17
2019-03-02T04:46:32.605Z,930.16
2019-03-02T04:47:32.560Z,930.16
2019-03-02T04:48:35.725Z,930.15
2019-03-02T04:49:32.465Z,930.12
2019-03-02T04:50:32.429Z,930.14
2019-03-02T04:51:35.133Z,930.14
2019-03-02T04:52:32.326Z,930.15
2019-03-02T04:53:32.286Z,930.13
2019-03-02T04:54:37.196Z,930.14
2019-03-02T04:55:32.188Z,930.14
2019-03-02T04:56:32.139Z,930.13
2019-03-02T04:57:33.060Z,930.11
2019-03-02T04:58:32.046Z,930.12
2019-03-02T04:59:31.992Z,930.10
2019-03-02T05:00:33.054Z,930.13
2019-03-02T05:01:31.899Z,930.10
2019-03-02T05:02:31.877Z,930.09
2019-03-02T05:03:31.819Z,930.12
2019-03-02T05:04:32.255Z,930.11
2019-03-02T05:05:31.738Z,930.06
2019-03-02T05:06:31.690Z,930.06
2019-03-02T05:07:31.634Z,930.00
2019-03-02T05:08:31.576Z,929.95
2019-03-02T05:09:31.530Z,929.88
2019-03-02T05:10:31.504Z,929.88
2019-03-02T05:11:31.448Z,929.87
2019-03-02T05:12:31.390Z,929.87
2019-03-02T05:13:31.348Z,929.88
2019-03-02T05:14:31.299Z,929.86
2019-03-02T05:15:31.276Z,929.84
2019-03-02T05:16:31.206Z,929.86
2019-03-02T05:17:31.174Z,929.82
2019-03-02T05:18:31.138Z,929.82
2019-03-02T05:19:31.075Z,929.83
2019-03-02T05:20:32.547Z,929.84
2019-03-02T05:21:30.996Z,929.83
2019-03-02T05:22:30.937Z,929.81
2019-03-02T05:23:31.525Z,929.74
2019-03-02T05:24:30.851Z,929.78
2019-03-02T05:25:30.790Z,929.75
2019-03-02T05:26:30.744Z,929.73
2019-03-02T05:27:32.013Z,929.67
2019-03-02T05:28:30.663Z,929.64
2019-03-02T05:29:30.626Z,929.67
2019-03-02T05:30:31.608Z,929.65
2019-03-02T05:31:30.525Z,929.61
2019-03-02T05:32:30.467Z,929.59
2019-03-02T05:33:30.442Z,929.61
2019-03-02T05:34:30.396Z,929.59
2019-03-02T05:35:30.530Z,929.57
2019-03-02T05:36:30.294Z,929.59
2019-03-02T05:37:30.247Z,929.58
2019-03-02T05:38:30.203Z,929.58
2019-03-02T05:39:30.166Z,929.56
2019-03-02T05:40:31.538Z,929.55
2019-03-02T05:41:30.073Z,929.54
2019-03-02T05:42:30.029Z,929.56
2019-03-02T05:43:29.983Z,929.56
2019-03-02T05:44:29.913Z,929.54
2019-03-02T05:45:29.879Z,929.53
2019-03-02T05:46:29.829Z,929.50
2019-03-02T05:47:29.786Z,929.50
2019-03-02T05:48:29.728Z,929.47
2019-03-02T05:49:29.695Z,929.49
2019-03-02T05:50:30.297Z,929.49
2019-03-02T05:51:29.601Z,929.48
2019-03-02T05:52:29.565Z,929.50
2019-03-02T05:53:30.240Z,929.51
2019-03-02T05:54:29.450Z,929.53
2019-03-02T05:55:29.429Z,929.57
2019-03-02T05:56:29.988Z,929.58
2019-03-02T05:57:29.336Z,929.62
2019-03-02T05:58:29.278Z,929.59
2019-03-02T05:59:29.240Z,929.58
2019-03-02T06:00:29.187Z,929.59
2019-03-02T06:01:29.139Z,929.59
2019-03-02T06:02:29.081Z,929.60
2019-03-02T06:03:29.048Z,929.59
2019-03-02T06:04:28.988Z,929.59
2019-03-02T06:05:28.955Z,929.57
2019-03-02T06:06:28.904Z,929.60
2019-03-02T06:07:28.862Z,929.59
2019-03-02T06:08:32.197Z,929.59
2019-03-02T06:09:28.765Z,929.61
2019-03-02T06:10:28.722Z,929.58
2019-03-02T06:11:28.673Z,929.57
2019-03-02T06:12:28.634Z,929.56
2019-03-02T06:13:29.679Z,929.53
2019-03-02T06:14:30.542Z,929.54
2019-03-02T06:15:28.928Z,929.54
2019-03-02T06:16:28.458Z,929.50
2019-03-02T06:17:29.815Z,929.46
2019-03-02T06:18:28.340Z,929.45
2019-03-02T06:19:28.309Z,929.43
2019-03-02T06:20:28.259Z,929.41
2019-03-02T06:21:28.223Z,929.41
2019-03-02T06:22:28.155Z,929.39
2019-03-02T06:23:30.030Z,929.39
2019-03-02T06:24:28.074Z,929.42
2019-03-02T06:25:28.033Z,929.40
2019-03-02T06:26:27.996Z,929.37
2019-03-02T06:27:27.934Z,929.35
2019-03-02T06:28:27.890Z,929.35
2019-03-02T06:29:29.452Z,929.33
2019-03-02T06:30:27.809Z,929.32
2019-03-02T06:31:27.750Z,929.29
2019-03-02T06:32:30.266Z,929.27
2019-03-02T06:33:27.670Z,929.29
2019-03-02T06:34:27.600Z,929.25
2019-03-02T06:35:29.050Z,929.27
2019-03-02T06:36:27.528Z,929.27
2019-03-02T06:37:27.485Z,929.30
2019-03-02T06:38:28.912Z,929.30
2019-03-02T06:39:27.383Z,929.31
2019-03-02T06:40:27.335Z,929.33
2019-03-02T06:41:29.849Z,929.31
2019-03-02T06:42:27.242Z,929.36
2019-03-02T06:43:27.191Z,929.41
2019-03-02T06:44:27.149Z,929.37
2019-03-02T06:45:27.105Z,929.38
2019-03-02T06:46:27.057Z,929.40
2019-03-02T06:47:30.025Z,929.44
2019-03-02T06:48:26.973Z,929.42
2019-03-02T06:49:26.927Z,929.46
2019-03-02T06:50:26.873Z,929.48
2019-03-02T06:51:26.815Z,929.47
2019-03-02T06:52:26.767Z,929.47
2019-03-02T06:53:26.742Z,929.49
2019-03-02T06:54:26.687Z,929.45
2019-03-02T06:55:26.641Z,929.49
2019-03-02T06:56:26.582Z,929.45
2019-03-02T06:57:26.547Z,929.45
2019-03-02T06:58:29.252Z,929.45
2019-03-02T06:59:26.443Z,929.46
2019-03-02T07:00:26.396Z,929.45
2019-03-02T07:01:26.363Z,929.46
2019-03-02T07:02:26.317Z,929.46
2019-03-02T07:03:26.279Z,929.44
2019-03-02T07:04:26.228Z,929.49
2019-03-02T07:05:26.187Z,929.49
2019-03-02T07:06:26.132Z,929.48
2019-03-02T07:07:26.087Z,929.48
2019-03-02T07:08:26.041Z,929.48
2019-03-02T07:09:26.001Z,929.49
2019-03-02T07:10:25.946Z,929.47
2019-03-02T07:11:25.888Z,929.50
2019-03-02T07:12:25.862Z,929.49
2019-03-02T07:13:25.812Z,929.50
2019-03-02T07:14:28.881Z,929.48
2019-03-02T07:15:25.727Z,929.46
2019-03-02T07:16:25.681Z,929.51
2019-03-02T07:17:27.620Z,929.48
2019-03-02T07:18:25.564Z,929.45
2019-03-02T07:19:25.523Z,929.45
2019-03-02T07:20:27.423Z,929.44
2019-03-02T07:21:25.434Z,929.48
2019-03-02T07:22:25.388Z,929.48
2019-03-02T07:23:27.653Z,929.51
2019-03-02T07:24:25.903Z,929.49
2019-03-02T07:25:25.240Z,929.47
2019-03-02T07:26:25.194Z,929.48
2019-03-02T07:27:26.384Z,929.46
2019-03-02T07:28:25.110Z,929.50
2019-03-02T07:29:25.068Z,929.48
2019-03-02T07:30:25.033Z,929.50
2019-03-02T07:31:24.976Z,929.50
2019-03-02T07:32:24.916Z,929.53
2019-03-02T07:33:24.874Z,929.51
2019-03-02T07:34:24.824Z,929.54
2019-03-02T07:35:24.799Z,929.52
2019-03-02T07:36:28.078Z,929.53
2019-03-02T07:37:24.698Z,929.52
2019-03-02T07:38:24.651Z,929.53
2019-03-02T07:39:24.607Z,929.51
2019-03-02T07:40:24.560Z,929.53
2019-03-02T07:41:24.500Z,929.52
2019-03-02T07:42:24.454Z,929.50
2019-03-02T07:43:24.408Z,929.49
2019-03-02T07:44:24.374Z,929.52
2019-03-02T07:45:24.316Z,929.46
2019-03-02T07:46:24.269Z,929.45
2019-03-02T07:47:25.070Z,929.45
2019-03-02T07:48:24.181Z,929.43
2019-03-02T07:49:24.142Z,929.45
2019-03-02T07:50:25.961Z,929.51
2019-03-02T07:51:24.054Z,929.41
2019-03-02T07:52:24.000Z,929.47
2019-03-02T07:53:24.937Z,929.47
2019-03-02T07:54:23.924Z,929.49
2019-03-02T07:55:23.866Z,929.49
2019-03-02T07:56:23.831Z,929.47
2019-03-02T07:57:23.772Z,929.46
2019-03-02T07:58:23.727Z,929.48
2019-03-02T07:59:26.573Z,929.49
2019-03-02T08:00:23.633Z,929.47
2019-03-02T08:01:23.589Z,929.47
2019-03-02T08:02:25.836Z,929.52
2019-03-02T08:03:23.504Z,929.51
2019-03-02T08:04:23.450Z,929.53
2019-03-02T08:05:23.404Z,929.51
2019-03-02T08:06:25.659Z,929.48
2019-03-02T08:07:23.337Z,929.49
2019-03-02T08:08:23.273Z,929.50
2019-03-02T08:09:25.839Z,929.50
2019-03-02T08:10:23.172Z,929.51
2019-03-02T08:11:23.137Z,929.48
2019-03-02T08:12:24.820Z,929.52
2019-03-02T08:13:23.033Z,929.55
2019-03-02T08:14:22.983Z,929.59
2019-03-02T08:15:24.255Z,929.60
2019-03-02T08:16:22.908Z,929.62
2019-03-02T08:17:22.848Z,929.65
2019-03-02T08:18:25.926Z,929.66
2019-03-02T08:19:22.755Z,929.68
2019-03-02T08:20:24.775Z,929.68
2019-03-02T08:21:22.672Z,929.70
2019-03-02T08:22:22.617Z,929.71
2019-03-02T08:23:22.571Z,929.71
2019-03-02T08:24:22.526Z,929.73
2019-03-02T08:25:22.466Z,929.74
2019-03-02T08:26:22.603Z,929.75
2019-03-02T08:27:22.386Z,929.77
2019-03-02T08:28:22.336Z,929.79
2019-03-02T08:29:22.289Z,929.77
2019-03-02T08:30:22.251Z,929.79
2019-03-02T08:31:22.201Z,929.77
2019-03-02T08:32:22.142Z,929.77
2019-03-02T08:33:22.121Z,929.76
2019-03-02T08:34:22.064Z,929.76
2019-03-02T08:35:22.033Z,929.81
2019-03-02T08:36:21.970Z,929.82
2019-03-02T08:37:21.922Z,929.82
2019-03-02T08:38:21.873Z,929.82
2019-03-02T08:39:21.819Z,929.82
2019-03-02T08:40:23.328Z,929.81
2019-03-02T08:41:21.740Z,929.83
2019-03-02T08:42:21.704Z,929.86
2019-03-02T08:43:21.646Z,929.84
2019-03-02T08:44:21.597Z,929.88
2019-03-02T08:45:21.562Z,929.94
2019-03-02T08:46:21.506Z,929.94
2019-03-02T08:47:21.448Z,929.95
2019-03-02T08:48:21.406Z,929.95
2019-03-02T08:49:21.368Z,929.96
2019-03-02T08:50:21.321Z,930.02
2019-03-02T08:51:21.675Z,930.04
2019-03-02T08:52:21.233Z,929.99
2019-03-02T08:53:21.733Z,929.97
2019-03-02T08:54:21.551Z,930.04
2019-03-02T08:55:21.091Z,930.00
2019-03-02T08:56:21.040Z,929.99
2019-03-02T08:57:23.129Z,930.01
2019-03-02T08:58:22.561Z,930.01
2019-03-02T08:59:20.915Z,930.03
2019-03-02T09:00:20.847Z,930.07
2019-03-02T09:01:20.826Z,930.07
2019-03-02T09:02:20.779Z,930.07
2019-03-02T09:03:20.720Z,930.03
2019-03-02T09:04:20.676Z,930.09
2019-03-02T09:05:26.057Z,930.14
2019-03-02T09:06:20.574Z,930.12
2019-03-02T09:07:20.537Z,930.12
2019-03-02T09:08:20.485Z,930.09
2019-03-02T09:09:20.440Z,930.13
2019-03-02T09:10:21.722Z,930.13
2019-03-02T09:11:20.347Z,930.15
2019-03-02T09:12:21.891Z,930.13
2019-03-02T09:13:20.259Z,930.08
2019-03-02T09:14:20.209Z,930.09
2019-03-02T09:15:22.235Z,930.14
2019-03-02T09:16:20.132Z,930.11
2019-03-02T09:17:20.073Z,930.13
2019-03-02T09:18:20.015Z,930.13
2019-03-02T09:19:20.861Z,930.17
2019-03-02T09:20:19.934Z,930.16
2019-03-02T09:21:19.877Z,930.16
2019-03-02T09:22:20.881Z,930.15
2019-03-02T09:23:19.784Z,930.13
2019-03-02T09:24:19.823Z,930.15
2019-03-02T09:25:20.217Z,930.16
2019-03-02T09:26:19.669Z,930.22
2019-03-02T09:27:19.611Z,930.17
2019-03-02T09:28:19.566Z,930.19
2019-03-02T09:29:19.530Z,930.14
2019-03-02T09:30:19.469Z,930.19
2019-03-02T09:31:26.073Z,930.15
2019-03-02T09:32:19.370Z,930.13
2019-03-02T09:33:19.344Z,930.16
2019-03-02T09:34:19.289Z,930.18
2019-03-02T09:35:19.240Z,930.20
2019-03-02T09:36:19.197Z,930.21
2019-03-02T09:37:19.151Z,930.20
2019-03-02T09:38:20.909Z,930.29
2019-03-02T09:39:19.045Z,930.30
2019-03-02T09:40:19.012Z,930.30
2019-03-02T09:41:21.939Z,930.34
2019-03-02T09:42:18.932Z,930.29
2019-03-02T09:43:18.872Z,930.37
2019-03-02T09:44:18.836Z,930.35
2019-03-02T09:45:18.782Z,930.39
2019-03-02T09:46:21.170Z,930.43
2019-03-02T09:47:18.690Z,930.45
2019-03-02T09:48:20.953Z,930.47
2019-03-02T09:49:18.600Z,930.48
2019-03-02T09:50:18.554Z,930.50
2019-03-02T09:51:18.501Z,930.54
2019-03-02T09:52:18.665Z,930.58
2019-03-02T09:53:18.400Z,930.63
2019-03-02T09:54:18.354Z,930.65
2019-03-02T09:55:19.967Z,930.73
2019-03-02T09:56:18.287Z,930.74
2019-03-02T09:57:18.228Z,930.77
2019-03-02T09:58:20.266Z,930.93
2019-03-02T09:59:18.150Z,930.92
2019-03-02T10:00:19.361Z,930.97
2019-03-02T10:01:18.104Z,931.17
2019-03-02T10:02:18.014Z,931.13
2019-03-02T10:03:17.957Z,930.95
2019-03-02T10:04:17.920Z,930.85
2019-03-02T10:05:17.881Z,930.85
2019-03-02T10:06:17.824Z,930.79
2019-03-02T10:07:17.774Z,930.81
2019-03-02T10:08:17.747Z,930.89
2019-03-02T10:09:17.699Z,930.96
2019-03-02T10:10:17.634Z,930.91
2019-03-02T10:11:17.588Z,930.92
2019-03-02T10:12:17.553Z,930.94
2019-03-02T10:13:17.500Z,930.93
2019-03-02T10:14:20.715Z,930.87
2019-03-02T10:15:19.363Z,930.93
2019-03-02T10:16:17.391Z,930.95
2019-03-02T10:17:17.343Z,930.94
2019-03-02T10:18:17.277Z,930.93
2019-03-02T10:19:17.232Z,930.95
2019-03-02T10:20:17.201Z,930.98
2019-03-02T10:21:17.158Z,930.97
2019-03-02T10:22:19.779Z,931.00
2019-03-02T10:23:17.067Z,931.02
2019-03-02T10:24:17.939Z,931.00
2019-03-02T10:25:16.974Z,931.04
2019-03-02T10:26:16.919Z,931.10
2019-03-02T10:27:17.318Z,931.12
2019-03-02T10:28:16.842Z,931.13
2019-03-02T10:29:16.797Z,931.18
2019-03-02T10:30:16.760Z,931.19
2019-03-02T10:31:16.703Z,931.20
2019-03-02T10:32:16.661Z,931.22
2019-03-02T10:33:16.603Z,931.22
2019-03-02T10:34:17.297Z,931.21
2019-03-02T10:35:17.133Z,931.24
2019-03-02T10:36:16.481Z,931.27
2019-03-02T10:37:16.444Z,931.26
2019-03-02T10:38:18.977Z,931.27
2019-03-02T10:39:16.341Z,931.29
2019-03-02T10:40:16.512Z,931.33
2019-03-02T10:41:16.716Z,931.28
2019-03-02T10:42:16.197Z,931.33
2019-03-02T10:43:16.153Z,931.33
2019-03-02T10:44:17.754Z,931.33
2019-03-02T10:45:16.074Z,931.36
2019-03-02T10:46:16.023Z,931.37
2019-03-02T10:47:16.657Z,931.42
2019-03-02T10:48:15.925Z,931.40
2019-03-02T10:49:15.892Z,931.40
2019-03-02T10:50:15.859Z,931.40
2019-03-02T10:51:15.810Z,931.42
2019-03-02T10:52:15.751Z,931.45
2019-03-02T10:53:15.769Z,931.45
2019-03-02T10:54:15.666Z,931.42
2019-03-02T10:55:15.620Z,931.42
2019-03-02T10:56:15.583Z,931.43
2019-03-02T10:57:15.516Z,931.49
2019-03-02T10:58:15.474Z,931.50
2019-03-02T10:59:16.400Z,931.51
2019-03-02T11:00:15.391Z,931.56
2019-03-02T11:01:15.343Z,931.55
2019-03-02T11:02:16.926Z,931.57
2019-03-02T11:03:15.265Z,931.53
2019-03-02T11:04:15.206Z,931.55
2019-03-02T11:05:16.766Z,931.57
2019-03-02T11:06:15.121Z,931.51
2019-03-02T11:07:15.082Z,931.53
2019-03-02T11:08:15.024Z,931.56
2019-03-02T11:09:22.161Z,931.53
2019-03-02T11:10:16.642Z,931.52
2019-03-02T11:11:14.894Z,931.54
2019-03-02T11:12:14.858Z,931.55
2019-03-02T11:13:16.016Z,931.56
2019-03-02T11:14:14.743Z,931.58
2019-03-02T11:15:14.709Z,931.56
2019-03-02T11:16:14.660Z,931.53
2019-03-02T11:17:14.605Z,931.57
2019-03-02T11:18:14.568Z,931.54
2019-03-02T11:19:14.541Z,931.57
2019-03-02T11:20:14.481Z,931.58
2019-03-02T11:21:14.431Z,931.59
2019-03-02T11:22:15.072Z,931.60
2019-03-02T11:23:15.790Z,931.60
2019-03-02T11:24:14.286Z,931.66
2019-03-02T11:25:14.241Z,931.71
2019-03-02T11:26:14.209Z,931.67
2019-03-02T11:27:14.148Z,931.66
2019-03-02T11:28:14.118Z,931.67
2019-03-02T11:29:14.082Z,931.69
2019-03-02T11:30:14.012Z,931.68
2019-03-02T11:31:13.966Z,931.69
2019-03-02T11:32:16.811Z,931.67
2019-03-02T11:33:13.889Z,931.72
2019-03-02T11:34:13.843Z,931.74
2019-03-02T11:35:13.787Z,931.75
2019-03-02T11:36:13.974Z,931.75
2019-03-02T11:37:13.695Z,931.71
2019-03-02T11:38:13.672Z,931.72
2019-03-02T11:39:13.890Z,931.70
2019-03-02T11:40:13.570Z,931.72
2019-03-02T11:41:13.533Z,931.74
2019-03-02T11:42:14.052Z,931.72
2019-03-02T11:43:16.247Z,931.73
2019-03-02T11:44:13.384Z,931.75
2019-03-02T11:45:13.338Z,931.76
2019-03-02T11:46:13.297Z,931.70
2019-03-02T11:47:13.243Z,931.73
2019-03-02T11:48:14.466Z,931.79
2019-03-02T11:49:13.161Z,931.76
2019-03-02T11:50:14.277Z,931.74
2019-03-02T11:51:13.068Z,931.76
2019-03-02T11:52:13.013Z,931.76
2019-03-02T11:53:15.941Z,931.75
2019-03-02T11:54:12.946Z,931.76
2019-03-02T11:55:12.896Z,931.75
2019-03-02T11:56:12.830Z,931.77
2019-03-02T11:57:12.796Z,931.82
2019-03-02T11:58:12.760Z,931.79
2019-03-02T11:59:12.720Z,931.80
2019-03-02T12:00:12.662Z,931.87
2019-03-02T12:01:12.612Z,931.87
2019-03-02T12:02:15.686Z,931.88
2019-03-02T12:03:12.526Z,931.91
2019-03-02T12:04:15.245Z,931.91
2019-03-02T12:05:12.444Z,931.92
2019-03-02T12:06:12.402Z,931.93
2019-03-02T12:07:12.345Z,931.90
2019-03-02T12:08:12.299Z,931.98
2019-03-02T12:09:12.255Z,931.98
2019-03-02T12:10:12.209Z,931.98
2019-03-02T12:11:12.152Z,931.88
2019-03-02T12:12:12.108Z,931.89
2019-03-02T12:13:12.076Z,931.94
2019-03-02T12:14:12.021Z,931.92
2019-03-02T12:15:11.998Z,931.98
2019-03-02T12:16:11.937Z,931.98
2019-03-02T12:17:11.883Z,931.95
2019-03-02T12:18:12.772Z,931.92
2019-03-02T12:19:11.797Z,931.88
2019-03-02T12:20:11.894Z,931.86
2019-03-02T12:21:11.729Z,931.85
2019-03-02T12:22:11.685Z,931.87
2019-03-02T12:23:11.629Z,931.96
2019-03-02T12:24:15.037Z,931.94
2019-03-02T12:25:11.551Z,931.82
2019-03-02T12:26:11.994Z,931.80
2019-03-02T12:27:11.450Z,931.85
2019-03-02T12:28:11.406Z,931.81